Terminal Aerodrome Forecast
Issued by NWS Spokane, WA

Home | Current Version | Previous Version | Text Only | Print | Product List | Glossary On
Versions: 1 2 3 4 5 6 7 8 9 10 11 12 13 14 15 16 17 18 19 20 21 22 23 24 25 26 27 28 29 30 31 32 33 34 35 36 37 38 39 40
000
FTUS46 KOTX 100824 AAA
TAFGEG
TAF AMD
KGEG 100824Z 1008/1106 06007KT 2SM -SN BR SCT008 OVC025
      TEMPO 1008/1012 06005KT 3/4SM -SN BR OVC008
     FM101300 21004KT 5SM BR OVC002
     FM102000 24006KT P6SM BKN007
     FM110300 19008G14KT 3SM -SN SCT007 BKN019 OVC025=

USA.gov is the U.S. government's official web portal to all federal, state and local government web resources and services.